Marshall, Minnesota
Current Conditions -  °F | °C
As of 2:55 PM on Tuesday 27 Jan 2015 (Local Time) from KMML Reporting Station
Broken Clouds Broken Clouds  
Wind Chill: -4°   Ceiling: 1000
Heat Index:   Visibility: 10mi
Dew Point: -2°   Wind: 12mph
Humidity: 81%   Direction: 170°S
Pressure: 30.08"   Gusts: NA
Location:  44.45°N, 95.79°W
Report Text: KMML 272055Z AUTO 17010KT 10SM BKN010 01/M02 A3008 RMK AO1 57014
Loading
Personal Weather Stations






























Interactive Weather Map New forecast layout! Learn more

10-Day Weather Forecast

Advertisements
Track Severe Weather on mobile